Terminal Aerodrome Forecast
Issued by NWS

Current Version | Previous Version | Graphics & Text | Print | Product List | Glossary On
Versions: 1 2 3 4 5 6 7 8 9 10 11 12 13 14 15 16 17 18 19 20 21 22 23 24 25 26 27
000
FTUS41 KPBZ 161037 AAB
TAFHLG
TAF AMD
KHLG 161037Z 1611/1706 22003KT 3SM -SN OVC050
      TEMPO 1611/1613 2SM -SN BKN015
     FM161800 24007KT 6SM -SN OVC015
     FM170100 28010KT P6SM OVC025=

USA.gov is the U.S. government's official web portal to all federal, state and local government web resources and services.